createdAt,value
2023-01-02T00:01:00.557Z,101099.63
2023-01-02T00:03:27.664Z,101101.84
2023-01-02T00:05:54.634Z,101090.22
2023-01-02T00:08:21.799Z,101088.16
2023-01-02T00:10:52.632Z,101082.47
2023-01-02T00:13:19.936Z,101073.06
2023-01-02T00:15:47.080Z,101075.72
2023-01-02T00:18:15.375Z,101065.72
2023-01-02T00:20:42.296Z,101051.19
2023-01-02T00:23:10.209Z,101047.75
2023-01-02T00:25:37.511Z,101046.50
2023-01-02T00:28:04.752Z,101037.09
2023-01-02T00:30:37.968Z,101039.13
2023-01-02T00:33:06.072Z,101032.38
2023-01-02T00:35:37.546Z,101012.97
2023-01-02T00:38:04.684Z,101013.78
2023-01-02T00:40:31.611Z,101013.41
2023-01-02T00:42:58.513Z,101011.97
2023-01-02T00:45:25.464Z,101010.72
2023-01-02T00:47:52.346Z,101008.28
2023-01-02T00:50:19.417Z,101009.72
2023-01-02T00:52:47.693Z,100990.50
2023-01-02T00:55:14.584Z,100991.53
2023-01-02T00:57:41.462Z,100992.53
2023-01-02T01:00:09.873Z,100975.78
2023-01-02T01:02:36.887Z,100977.84
2023-01-02T01:05:04.718Z,100978.66
2023-01-02T01:07:31.597Z,100984.59
2023-01-02T01:09:59.822Z,100970.88
2023-01-02T01:12:26.740Z,100961.28
2023-01-02T01:14:53.587Z,100962.28
2023-01-02T01:17:20.500Z,100959.03
2023-01-02T01:19:47.388Z,100954.31
2023-01-02T01:22:14.259Z,100941.47
2023-01-02T01:24:41.105Z,100945.53
2023-01-02T01:27:09.320Z,100934.09
2023-01-02T01:29:36.149Z,100933.31
2023-01-02T01:32:03.240Z,100932.47
2023-01-02T01:34:30.167Z,100931.25
2023-01-02T01:36:57.103Z,100927.56
2023-01-02T01:39:24.027Z,100936.97
2023-01-02T01:41:50.948Z,100931.66
2023-01-02T01:44:47.546Z,100932.69
2023-01-02T01:47:27.069Z,100934.94
2023-01-02T01:50:04.955Z,100925.53
2023-01-02T01:52:37.375Z,100921.66
2023-01-02T01:55:12.679Z,100934.94
2023-01-02T01:57:46.309Z,100926.78
2023-01-02T02:00:16.197Z,100931.25
2023-01-02T02:02:48.398Z,100934.94
2023-01-02T02:05:21.936Z,100944.75
2023-01-02T02:08:01.579Z,100936.59
2023-01-02T02:10:28.501Z,100933.09
2023-01-02T02:12:55.496Z,100935.97
2023-01-02T02:15:38.617Z,100930.25
2023-01-02T02:18:23.590Z,100923.91
2023-01-02T02:20:57.505Z,100908.19
2023-01-02T02:24:02.489Z,100901.44
2023-01-02T02:26:56.541Z,100904.50
2023-01-02T02:30:04.027Z,100906.75
2023-01-02T02:33:08.601Z,100893.69
2023-01-02T02:35:53.151Z,100896.53
2023-01-02T02:38:40.046Z,100886.72
2023-01-02T02:41:24.991Z,100887.94
2023-01-02T02:44:06.211Z,100884.25
2023-01-02T02:46:47.618Z,100883.63
2023-01-02T02:49:24.158Z,100875.22
2023-01-02T02:51:58.169Z,100886.66
2023-01-02T02:54:35.530Z,100887.47
2023-01-02T02:57:07.024Z,100886.78
2023-01-02T02:59:36.900Z,100875.91
2023-01-02T03:02:05.642Z,100875.69
2023-01-02T03:04:33.094Z,100874.59
2023-01-02T03:07:16.383Z,100889.25
2023-01-02T03:10:00.236Z,100879.41
2023-01-02T03:12:41.317Z,100876.13
2023-01-02T03:15:20.307Z,100869.78
2023-01-02T03:18:04.803Z,100878.53
2023-01-02T03:20:38.998Z,100875.28
2023-01-02T03:23:11.701Z,100876.47
2023-01-02T03:25:40.730Z,100877.50
2023-01-02T03:28:10.507Z,100870.53
2023-01-02T03:30:40.851Z,100853.91
2023-01-02T03:33:15.241Z,100856.13
2023-01-02T03:35:46.789Z,100858.34
2023-01-02T03:38:22.336Z,100863.69
2023-01-02T03:40:58.828Z,100861.63
2023-01-02T03:43:30.481Z,100859.53
2023-01-02T03:46:08.524Z,100868.34
2023-01-02T03:48:45.949Z,100861.19
2023-01-02T03:51:12.957Z,100855.88
2023-01-02T03:53:41.037Z,100862.41
2023-01-02T03:56:21.752Z,100863.25
2023-01-02T03:58:57.046Z,100863.84
2023-01-02T04:01:37.104Z,100861.63
2023-01-02T04:04:16.079Z,100858.34
2023-01-02T04:06:49.768Z,100860.00
2023-01-02T04:09:21.598Z,100867.97
2023-01-02T04:11:55.767Z,100867.81
2023-01-02T04:14:30.767Z,100868.47
2023-01-02T04:17:01.135Z,100863.84
2023-01-02T04:19:38.131Z,100868.41
2023-01-02T04:22:14.398Z,100865.09
2023-01-02T04:24:50.214Z,100865.16
2023-01-02T04:27:24.723Z,100859.81
2023-01-02T04:29:51.838Z,100864.72
2023-01-02T04:32:25.434Z,100867.16
2023-01-02T04:34:56.497Z,100869.88
2023-01-02T04:37:29.527Z,100870.28
2023-01-02T04:40:02.389Z,100875.44
2023-01-02T04:42:29.272Z,100872.16
2023-01-02T04:44:56.145Z,100867.25
2023-01-02T04:47:23.081Z,100877.13
2023-01-02T04:49:49.982Z,100878.41
2023-01-02T04:52:18.274Z,100873.72
2023-01-02T04:54:45.252Z,100874.75
2023-01-02T04:57:12.118Z,100863.31
2023-01-02T04:59:39.057Z,100863.31
2023-01-02T05:02:06.101Z,100864.50
2023-01-02T05:04:33.146Z,100862.44
2023-01-02T05:07:00.073Z,100866.91
2023-01-02T05:09:28.566Z,100866.06
2023-01-02T05:11:55.456Z,100859.88
2023-01-02T05:14:22.363Z,100859.06
2023-01-02T05:16:49.239Z,100860.25
2023-01-02T05:19:16.370Z,100861.44
2023-01-02T05:22:01.611Z,100859.19
2023-01-02T05:24:29.845Z,100867.59
2023-01-02T05:26:56.755Z,100864.78
2023-01-02T05:29:23.719Z,100859.09
2023-01-02T05:31:50.617Z,100851.94
2023-01-02T05:34:17.824Z,100859.56
2023-01-02T05:36:44.794Z,100858.50
2023-01-02T05:39:13.945Z,100854.66
2023-01-02T05:41:42.647Z,100861.81
2023-01-02T05:44:10.827Z,100864.88
2023-01-02T05:46:39.390Z,100866.47
2023-01-02T05:49:06.903Z,100864.00
2023-01-02T05:51:34.757Z,100873.81
2023-01-02T05:54:02.809Z,100873.59
2023-01-02T05:56:31.147Z,100876.19
2023-01-02T05:59:03.171Z,100878.03
2023-01-02T06:01:30.660Z,100868.22
2023-01-02T06:04:00.241Z,100865.97
2023-01-02T06:06:32.302Z,100868.44
2023-01-02T06:09:00.023Z,100870.47
2023-01-02T06:11:27.823Z,100858.63
2023-01-02T06:13:55.354Z,100855.63
2023-01-02T06:16:25.066Z,100848.66
2023-01-02T06:18:52.775Z,100846.44
2023-01-02T06:21:22.177Z,100855.78
2023-01-02T06:23:54.975Z,100850.84
2023-01-02T06:26:22.941Z,100852.88
2023-01-02T06:28:52.539Z,100858.97
2023-01-02T06:31:24.014Z,100861.84
2023-01-02T06:33:54.705Z,100856.09
2023-01-02T06:36:21.953Z,100860.19
2023-01-02T06:38:49.381Z,100855.47
2023-01-02T06:41:17.216Z,100859.91
2023-01-02T06:43:46.908Z,100868.47
2023-01-02T06:46:15.605Z,100869.19
2023-01-02T06:48:44.693Z,100869.69
2023-01-02T06:51:14.629Z,100869.06
2023-01-02T06:53:43.781Z,100860.41
2023-01-02T06:56:12.928Z,100867.00
2023-01-02T06:58:40.117Z,100862.03
2023-01-02T07:01:10.115Z,100862.84
2023-01-02T07:03:37.446Z,100851.75
2023-01-02T07:06:08.758Z,100860.72
2023-01-02T07:08:36.110Z,100858.31
2023-01-02T07:11:12.680Z,100857.09
2023-01-02T07:13:41.995Z,100856.22
2023-01-02T07:16:12.898Z,100867.91
2023-01-02T07:18:40.417Z,100864.50
2023-01-02T07:21:10.838Z,100856.72
2023-01-02T07:23:38.553Z,100860.00
2023-01-02T07:26:07.460Z,100865.75
2023-01-02T07:28:35.881Z,100847.47
2023-01-02T07:31:06.378Z,100850.19
2023-01-02T07:33:34.715Z,100868.41
2023-01-02T07:36:04.703Z,100868.16
2023-01-02T07:38:34.134Z,100865.81
2023-01-02T07:41:01.112Z,100868.88
2023-01-02T07:43:28.135Z,100876.22
2023-01-02T07:46:01.206Z,100879.03
2023-01-02T07:48:29.099Z,100890.88
2023-01-02T07:51:00.571Z,100889.75
2023-01-02T07:53:27.563Z,100887.22
2023-01-02T07:55:57.154Z,100897.53
2023-01-02T07:58:24.502Z,100896.69
2023-01-02T08:00:51.562Z,100902.84
2023-01-02T08:03:18.463Z,100901.97
2023-01-02T08:05:45.443Z,100902.34
2023-01-02T08:08:12.774Z,100906.38
2023-01-02T08:10:40.342Z,100910.88
2023-01-02T08:13:08.611Z,100914.38
2023-01-02T08:15:35.587Z,100912.69
2023-01-02T08:18:02.583Z,100928.06
2023-01-02T08:20:29.476Z,100915.94
2023-01-02T08:22:57.451Z,100919.19
2023-01-02T08:25:24.332Z,100928.84
2023-01-02T08:27:51.342Z,100924.69
2023-01-02T08:30:19.777Z,100927.19
2023-01-02T08:32:46.752Z,100933.69
2023-01-02T08:35:13.749Z,100936.09
2023-01-02T08:37:43.323Z,100926.03
2023-01-02T08:40:12.740Z,100936.09
2023-01-02T08:42:42.174Z,100940.69
2023-01-02T08:45:10.636Z,100943.56
2023-01-02T08:47:38.871Z,100949.25
2023-01-02T08:50:06.085Z,100941.78
2023-01-02T08:52:33.049Z,100947.19
2023-01-02T08:55:03.695Z,100951.09
2023-01-02T08:57:30.569Z,100956.22
2023-01-02T08:59:57.473Z,100947.94
2023-01-02T09:02:24.622Z,100961.00
2023-01-02T09:04:53.074Z,100955.78
2023-01-02T09:07:20.013Z,100959.06
2023-01-02T09:09:47.001Z,100964.38
2023-01-02T09:12:13.995Z,100958.59
2023-01-02T09:14:41.191Z,100975.19
2023-01-02T09:17:08.753Z,100978.59
2023-01-02T09:19:36.018Z,100979.97
2023-01-02T09:22:04.325Z,100978.66
2023-01-02T09:24:31.265Z,100990.34
2023-01-02T09:26:59.252Z,100986.16
2023-01-02T09:29:26.202Z,101003.34
2023-01-02T09:31:53.111Z,100993.44
2023-01-02T09:34:20.095Z,101001.75
2023-01-02T09:36:47.615Z,101005.28
2023-01-02T09:39:16.026Z,101014.47
2023-01-02T09:41:48.301Z,101008.78
2023-01-02T09:44:22.384Z,101011.44
2023-01-02T09:46:54.269Z,101004.34
2023-01-02T09:49:25.905Z,101015.38
2023-01-02T09:51:52.973Z,101014.50
2023-01-02T09:54:28.817Z,101016.53
2023-01-02T09:57:16.692Z,101027.00
2023-01-02T09:59:53.024Z,101024.94
2023-01-02T10:02:53.346Z,101043.66
2023-01-02T10:06:02.422Z,101042.91
2023-01-02T10:08:43.078Z,101053.56
2023-01-02T10:11:30.930Z,101060.59
2023-01-02T10:14:19.193Z,101079.38
2023-01-02T10:16:52.280Z,101064.66
2023-01-02T10:19:28.029Z,101086.84
2023-01-02T10:22:00.672Z,101086.41
2023-01-02T10:24:42.081Z,101084.44
2023-01-02T10:27:20.552Z,101088.34
2023-01-02T10:30:01.110Z,101112.31
2023-01-02T10:32:31.725Z,101126.69
2023-01-02T10:35:14.681Z,101138.59
2023-01-02T10:37:41.696Z,101131.41
2023-01-02T10:40:11.508Z,101135.28
2023-01-02T10:42:41.523Z,101127.06
2023-01-02T10:45:16.287Z,101139.38
2023-01-02T10:47:44.651Z,101148.81
2023-01-02T10:50:21.365Z,101157.47
2023-01-02T10:52:51.495Z,101169.16
2023-01-02T10:55:31.823Z,101176.78
2023-01-02T10:58:07.241Z,101189.72
2023-01-02T11:00:36.230Z,101187.91
2023-01-02T11:03:15.213Z,101192.03
2023-01-02T11:05:48.695Z,101192.06
2023-01-02T11:08:21.610Z,101195.53
2023-01-02T11:10:49.834Z,101204.34
2023-01-02T11:13:21.522Z,101210.50
2023-01-02T11:15:53.104Z,101219.50
2023-01-02T11:18:26.254Z,101222.16
2023-01-02T11:20:56.994Z,101239.34
2023-01-02T11:23:26.150Z,101248.97
2023-01-02T11:25:54.600Z,101251.84
2023-01-02T11:28:28.334Z,101262.09
2023-01-02T11:31:03.318Z,101253.28
2023-01-02T11:33:34.468Z,101256.34
2023-01-02T11:36:15.883Z,101279.44
2023-01-02T11:38:46.949Z,101289.88
2023-01-02T11:42:00.953Z,101307.88
2023-01-02T11:44:38.348Z,101306.59
2023-01-02T11:47:11.389Z,101301.09
2023-01-02T11:49:45.011Z,101305.16
2023-01-02T11:52:17.395Z,101312.72
2023-01-02T11:54:54.194Z,101298.72
2023-01-02T11:57:38.371Z,101304.84
2023-01-02T12:00:14.598Z,101303.19
2023-01-02T12:02:45.477Z,101298.94
2023-01-02T12:05:25.369Z,101305.25
2023-01-02T12:08:01.386Z,101306.06
2023-01-02T12:10:50.431Z,101318.13
2023-01-02T12:13:53.876Z,101306.84
2023-01-02T12:16:38.764Z,101315.47
2023-01-02T12:19:49.565Z,101337.50
2023-01-02T12:22:54.390Z,101353.91
2023-01-02T12:25:56.342Z,101347.53
2023-01-02T12:29:07.980Z,101358.16
2023-01-02T12:32:09.910Z,101364.09
2023-01-02T12:35:01.509Z,101377.22
2023-01-02T12:37:47.635Z,101385.44
2023-01-02T12:40:40.521Z,101395.84
2023-01-02T12:43:44.588Z,101394.41
2023-01-02T12:46:31.534Z,101399.94
2023-01-02T12:49:27.932Z,101408.72
2023-01-02T12:52:07.161Z,101415.28
2023-01-02T12:55:00.283Z,101417.94
2023-01-02T12:57:40.955Z,101407.13
2023-01-02T13:00:57.693Z,101401.38
2023-01-02T13:03:52.954Z,101402.19
2023-01-02T13:06:44.468Z,101404.47
2023-01-02T13:09:23.372Z,101409.97
2023-01-02T13:12:03.465Z,101406.47
2023-01-02T13:14:38.539Z,101403.41
2023-01-02T13:17:36.764Z,101426.47
2023-01-02T13:20:20.273Z,101427.06
2023-01-02T13:23:02.057Z,101431.94
2023-01-02T13:25:31.676Z,101434.34
2023-01-02T13:28:00.256Z,101438.41
2023-01-02T13:30:39.168Z,101441.66
2023-01-02T13:33:27.458Z,101441.19
2023-01-02T13:35:54.997Z,101440.81
2023-01-02T13:38:34.816Z,101446.13
2023-01-02T13:41:02.113Z,101441.44
2023-01-02T13:43:34.376Z,101435.97
2023-01-02T13:46:02.124Z,101449.03
2023-01-02T13:48:34.906Z,101445.13
2023-01-02T13:51:06.015Z,101465.09
2023-01-02T13:53:44.102Z,101443.00
2023-01-02T13:56:14.312Z,101469.28
2023-01-02T13:58:48.505Z,101468.41
2023-01-02T14:02:04.413Z,101474.25
2023-01-02T14:04:38.818Z,101488.94
2023-01-02T14:07:45.152Z,101498.78
2023-01-02T14:10:40.121Z,101506.06
2023-01-02T14:13:24.487Z,101503.97
2023-01-02T14:16:45.720Z,101498.19
2023-01-02T14:19:21.412Z,101492.53
2023-01-02T14:21:54.871Z,101499.44
2023-01-02T14:24:32.714Z,101497.63
2023-01-02T14:27:04.708Z,101504.97
2023-01-02T14:29:43.848Z,101514.94
2023-01-02T14:32:22.261Z,101526.75
2023-01-02T14:34:54.245Z,101516.34
2023-01-02T14:37:36.789Z,101522.34
2023-01-02T14:40:35.994Z,101525.75
2023-01-02T14:43:30.535Z,101524.91
2023-01-02T14:46:07.818Z,101521.63
2023-01-02T14:48:45.979Z,101525.09
2023-01-02T14:51:21.365Z,101536.34
2023-01-02T14:53:54.702Z,101534.34
2023-01-02T14:56:28.204Z,101546.22
2023-01-02T14:58:59.471Z,101564.41
2023-01-02T15:01:42.095Z,101570.34
2023-01-02T15:04:21.672Z,101568.28
2023-01-02T15:06:56.920Z,101581.72
2023-01-02T15:09:31.046Z,101583.72
2023-01-02T15:12:19.608Z,101581.72
2023-01-02T15:14:48.230Z,101580.06
2023-01-02T15:17:22.995Z,101567.81
2023-01-02T15:19:50.127Z,101579.72
2023-01-02T15:22:21.563Z,101584.00
2023-01-02T15:24:50.847Z,101589.28
2023-01-02T15:27:24.566Z,101592.34
2023-01-02T15:29:56.066Z,101584.47
2023-01-02T15:32:25.889Z,101590.41
2023-01-02T15:35:08.699Z,101589.78
2023-01-02T15:37:42.153Z,101592.50
2023-01-02T15:40:16.139Z,101591.94
2023-01-02T15:43:03.517Z,101594.91
2023-01-02T15:45:33.097Z,101590.06
2023-01-02T15:48:00.467Z,101587.56
2023-01-02T15:50:30.167Z,101586.28
2023-01-02T15:53:01.951Z,101600.75
2023-01-02T15:55:35.016Z,101602.94
2023-01-02T15:58:22.064Z,101611.44
2023-01-02T16:01:14.666Z,101608.34
2023-01-02T16:04:01.864Z,101598.56
2023-01-02T16:06:35.421Z,101599.56
2023-01-02T16:09:06.714Z,101610.81
2023-01-02T16:11:46.059Z,101611.00
2023-01-02T16:14:20.282Z,101601.66
2023-01-02T16:16:53.858Z,101608.63
2023-01-02T16:19:33.513Z,101612.91
2023-01-02T16:22:08.053Z,101625.81
2023-01-02T16:24:41.275Z,101626.28
2023-01-02T16:27:13.672Z,101632.38
2023-01-02T16:29:42.725Z,101620.13
2023-01-02T16:32:26.829Z,101621.88
2023-01-02T16:35:20.751Z,101626.91
2023-01-02T16:37:54.874Z,101632.22
2023-01-02T16:40:59.716Z,101639.53
2023-01-02T16:43:32.497Z,101641.56
2023-01-02T16:46:01.521Z,101639.53
2023-01-02T16:48:30.977Z,101646.94
2023-01-02T16:50:59.511Z,101645.75
2023-01-02T16:53:30.530Z,101658.66
2023-01-02T16:55:58.347Z,101661.66
2023-01-02T16:58:25.892Z,101658.00
2023-01-02T17:00:55.527Z,101662.31
2023-01-02T17:03:26.058Z,101679.06
2023-01-02T17:06:01.845Z,101679.22
2023-01-02T17:08:31.448Z,101677.41
2023-01-02T17:10:58.884Z,101684.53
2023-01-02T17:13:26.279Z,101681.88
2023-01-02T17:15:53.340Z,101685.63
2023-01-02T17:18:21.353Z,101682.63
2023-01-02T17:20:48.638Z,101694.69
2023-01-02T17:23:19.448Z,101691.00
2023-01-02T17:25:47.275Z,101696.72
2023-01-02T17:28:15.264Z,101693.50
2023-01-02T17:30:43.733Z,101703.75
2023-01-02T17:33:11.410Z,101706.03
2023-01-02T17:35:38.978Z,101707.84
2023-01-02T17:38:06.209Z,101710.41
2023-01-02T17:40:34.794Z,101710.50
2023-01-02T17:43:02.099Z,101722.03
2023-01-02T17:45:29.195Z,101725.38
2023-01-02T17:48:05.666Z,101734.91
2023-01-02T17:50:37.283Z,101734.25
2023-01-02T17:53:04.214Z,101733.78
2023-01-02T17:55:31.254Z,101758.34
2023-01-02T17:58:00.747Z,101743.78
2023-01-02T18:00:27.820Z,101757.22
2023-01-02T18:02:54.922Z,101759.25
2023-01-02T18:05:22.861Z,101754.47
2023-01-02T18:07:49.978Z,101765.59
2023-01-02T18:10:20.457Z,101757.38
2023-01-02T18:12:49.237Z,101758.75
2023-01-02T18:15:20.933Z,101757.44
2023-01-02T18:17:48.437Z,101763.91
2023-01-02T18:20:18.731Z,101754.88
2023-01-02T18:22:50.079Z,101759.03
2023-01-02T18:25:21.624Z,101764.84
2023-01-02T18:27:48.842Z,101759.88
2023-01-02T18:30:22.068Z,101760.25
2023-01-02T18:32:57.157Z,101768.69
2023-01-02T18:35:55.965Z,101777.13
2023-01-02T18:38:23.297Z,101775.84
2023-01-02T18:40:50.330Z,101783.97
2023-01-02T18:43:24.272Z,101786.94
2023-01-02T18:45:57.465Z,101800.69
2023-01-02T18:48:24.784Z,101798.72
2023-01-02T18:50:58.536Z,101806.38
2023-01-02T18:53:34.881Z,101806.84
2023-01-02T18:56:13.098Z,101803.25
2023-01-02T18:58:43.436Z,101805.22
2023-01-02T19:01:25.531Z,101813.69
2023-01-02T19:04:00.817Z,101816.50
2023-01-02T19:06:29.064Z,101828.25
2023-01-02T19:09:10.437Z,101828.91
2023-01-02T19:11:56.012Z,101829.28
2023-01-02T19:14:26.063Z,101831.59
2023-01-02T19:17:04.516Z,101840.69
2023-01-02T19:19:34.437Z,101845.97
2023-01-02T19:22:15.644Z,101854.22
2023-01-02T19:24:42.719Z,101853.75
2023-01-02T19:27:23.237Z,101865.81
2023-01-02T19:29:51.011Z,101870.28
2023-01-02T19:32:29.088Z,101881.16
2023-01-02T19:34:59.669Z,101882.84
2023-01-02T19:37:35.702Z,101888.31
2023-01-02T19:40:14.597Z,101886.47
2023-01-02T19:42:45.432Z,101891.09
2023-01-02T19:45:16.146Z,101883.50
2023-01-02T19:47:45.682Z,101888.13
2023-01-02T19:50:17.341Z,101890.28
2023-01-02T19:52:44.352Z,101896.88
2023-01-02T19:55:13.017Z,101904.00
2023-01-02T19:57:40.210Z,101917.53
2023-01-02T20:00:12.728Z,101914.41
2023-01-02T20:02:41.599Z,101924.47
2023-01-02T20:05:11.886Z,101917.50
2023-01-02T20:07:40.527Z,101925.44
2023-01-02T20:10:08.584Z,101924.47
2023-01-02T20:12:40.231Z,101938.50
2023-01-02T20:15:10.995Z,101939.66
2023-01-02T20:17:39.302Z,101949.22
2023-01-02T20:20:11.251Z,101948.75
2023-01-02T20:22:38.216Z,101960.47
2023-01-02T20:25:06.726Z,101963.41
2023-01-02T20:27:33.780Z,101973.19
2023-01-02T20:30:00.685Z,101968.88
2023-01-02T20:32:27.693Z,101980.28
2023-01-02T20:34:54.660Z,101984.72
2023-01-02T20:37:22.953Z,101983.91
2023-01-02T20:39:51.417Z,101991.81
2023-01-02T20:42:18.942Z,101996.44
2023-01-02T20:44:47.004Z,102008.13
2023-01-02T20:47:14.014Z,102003.03
2023-01-02T20:49:41.443Z,102015.41
2023-01-02T20:52:09.091Z,102015.56
2023-01-02T20:54:37.629Z,102018.88
2023-01-02T20:57:04.676Z,102024.56
2023-01-02T20:59:31.958Z,102029.50
2023-01-02T21:01:59.117Z,102025.88
2023-01-02T21:04:32.492Z,102038.78
2023-01-02T21:07:03.413Z,102048.88
2023-01-02T21:09:30.447Z,102058.16
2023-01-02T21:11:58.731Z,102057.97
2023-01-02T21:14:25.648Z,102051.88
2023-01-02T21:16:54.426Z,102066.91
2023-01-02T21:19:21.450Z,102070.53
2023-01-02T21:21:48.358Z,102058.31
2023-01-02T21:24:15.233Z,102063.91
2023-01-02T21:26:42.130Z,102070.50
2023-01-02T21:29:10.338Z,102079.06
2023-01-02T21:31:38.446Z,102079.66
2023-01-02T21:34:05.509Z,102080.63
2023-01-02T21:36:34.775Z,102081.88
2023-01-02T21:39:01.701Z,102083.19
2023-01-02T21:41:51.438Z,102091.44
2023-01-02T21:44:19.704Z,102094.38
2023-01-02T21:46:46.653Z,102093.03
2023-01-02T21:49:13.709Z,102103.59
2023-01-02T21:51:40.638Z,102110.69
2023-01-02T21:54:07.533Z,102124.75
2023-01-02T21:56:34.549Z,102127.38
2023-01-02T21:59:01.422Z,102130.03
2023-01-02T22:01:29.801Z,102132.00
2023-01-02T22:03:57.279Z,102131.31
2023-01-02T22:06:25.624Z,102132.63
2023-01-02T22:08:52.532Z,102133.22
2023-01-02T22:11:38.090Z,102138.81
2023-01-02T22:14:05.645Z,102146.69
2023-01-02T22:16:34.015Z,102153.22
2023-01-02T22:19:01.071Z,102154.50
2023-01-02T22:21:27.961Z,102158.44
2023-01-02T22:23:54.893Z,102155.94
2023-01-02T22:26:22.160Z,102169.31
2023-01-02T22:28:49.702Z,102174.88
2023-01-02T22:31:16.803Z,102183.13
2023-01-02T22:33:45.179Z,102174.50
2023-01-02T22:36:12.100Z,102192.44
2023-01-02T22:38:55.128Z,102190.94
2023-01-02T22:41:26.175Z,102192.22
2023-01-02T22:43:53.522Z,102192.50
2023-01-02T22:46:28.379Z,102193.81
2023-01-02T22:48:56.660Z,102194.25
2023-01-02T22:51:49.760Z,102199.81
2023-01-02T22:54:14.557Z,102193.97
2023-01-02T22:56:41.941Z,102202.91
2023-01-02T22:59:09.683Z,102206.50
2023-01-02T23:01:40.291Z,102209.44
2023-01-02T23:04:16.848Z,102201.00
2023-01-02T23:07:13.597Z,102205.59
2023-01-02T23:09:31.152Z,102211.97
2023-01-02T23:11:58.103Z,102212.13
2023-01-02T23:14:24.974Z,102214.91
2023-01-02T23:17:10.670Z,102216.88
2023-01-02T23:19:38.882Z,102217.31
2023-01-02T23:22:05.831Z,102230.78
2023-01-02T23:24:36.192Z,102233.56
2023-01-02T23:27:07.408Z,102227.72
2023-01-02T23:29:34.988Z,102236.59
2023-01-02T23:32:02.836Z,102241.03
2023-01-02T23:34:31.005Z,102244.66
2023-01-02T23:37:00.057Z,102249.91
2023-01-02T23:39:31.063Z,102254.38
2023-01-02T23:41:59.869Z,102257.72
2023-01-02T23:44:27.614Z,102267.16
2023-01-02T23:46:55.686Z,102266.84
2023-01-02T23:49:23.822Z,102268.25
2023-01-02T23:51:51.687Z,102270.47
2023-01-02T23:54:21.123Z,102274.63
2023-01-02T23:56:50.272Z,102265.72
2023-01-02T23:59:20.263Z,102277.94
